sensor_id;sensor_type;location;lat;lon;timestamp;noise_LAeq;noise_LA_min;noise_LA_max;noise_LA01;noise_LA95
68599;Laerm;18038;50.166;18.908;2023-06-26T00:01:10;48.46;47.46;51.55;;
68599;Laerm;18038;50.166;18.908;2023-06-26T00:04:17;48.51;47.51;51.86;;
68599;Laerm;18038;50.166;18.908;2023-06-26T00:07:26;49.31;47.56;53.00;;
68599;Laerm;18038;50.166;18.908;2023-06-26T00:10:34;58.58;47.50;73.46;;
68599;Laerm;18038;50.166;18.908;2023-06-26T00:13:41;66.81;47.90;86.40;;
68599;Laerm;18038;50.166;18.908;2023-06-26T00:16:48;55.55;46.99;70.22;;
68599;Laerm;18038;50.166;18.908;2023-06-26T00:19:54;51.99;47.42;65.76;;
68599;Laerm;18038;50.166;18.908;2023-06-26T00:23:04;51.47;47.55;68.04;;
68599;Laerm;18038;50.166;18.908;2023-06-26T00:26:10;53.47;47.66;66.89;;
68599;Laerm;18038;50.166;18.908;2023-06-26T00:29:18;54.09;47.49;72.36;;
68599;Laerm;18038;50.166;18.908;2023-06-26T00:32:24;52.57;47.35;69.12;;
68599;Laerm;18038;50.166;18.908;2023-06-26T00:35:31;48.59;47.08;52.23;;
68599;Laerm;18038;50.166;18.908;2023-06-26T00:38:42;50.89;47.54;62.46;;
68599;Laerm;18038;50.166;18.908;2023-06-26T00:41:48;49.61;47.73;73.95;;
68599;Laerm;18038;50.166;18.908;2023-06-26T00:44:56;52.00;47.65;66.58;;
68599;Laerm;18038;50.166;18.908;2023-06-26T00:48:05;48.97;47.51;67.85;;
68599;Laerm;18038;50.166;18.908;2023-06-26T00:51:16;50.99;47.67;64.47;;
68599;Laerm;18038;50.166;18.908;2023-06-26T00:54:26;48.90;47.45;57.81;;
68599;Laerm;18038;50.166;18.908;2023-06-26T00:57:32;51.24;47.22;66.05;;
68599;Laerm;18038;50.166;18.908;2023-06-26T01:00:43;53.46;47.69;70.99;;
68599;Laerm;18038;50.166;18.908;2023-06-26T01:03:50;53.81;48.02;66.09;;
68599;Laerm;18038;50.166;18.908;2023-06-26T01:07:03;50.23;47.72;67.43;;
68599;Laerm;18038;50.166;18.908;2023-06-26T01:10:13;50.40;47.71;59.09;;
68599;Laerm;18038;50.166;18.908;2023-06-26T01:13:23;51.75;47.47;67.78;;
68599;Laerm;18038;50.166;18.908;2023-06-26T01:16:32;53.47;47.97;69.14;;
68599;Laerm;18038;50.166;18.908;2023-06-26T01:19:40;49.47;47.54;54.02;;
68599;Laerm;18038;50.166;18.908;2023-06-26T01:23:05;49.50;47.70;54.67;;
68599;Laerm;18038;50.166;18.908;2023-06-26T01:26:22;55.41;47.52;68.31;;
68599;Laerm;18038;50.166;18.908;2023-06-26T01:29:32;52.59;47.71;66.36;;
68599;Laerm;18038;50.166;18.908;2023-06-26T01:32:40;53.62;47.83;67.39;;
68599;Laerm;18038;50.166;18.908;2023-06-26T01:35:48;57.67;48.63;69.37;;
68599;Laerm;18038;50.166;18.908;2023-06-26T18:26:41;59.88;51.78;70.87;;
68599;Laerm;18038;50.166;18.908;2023-06-26T18:29:48;60.61;51.24;71.47;;
68599;Laerm;18038;50.166;18.908;2023-06-26T18:32:55;58.92;51.57;70.98;;
68599;Laerm;18038;50.166;18.908;2023-06-26T18:36:05;59.21;51.11;66.87;;
68599;Laerm;18038;50.166;18.908;2023-06-26T18:39:12;60.16;51.59;72.82;;
68599;Laerm;18038;50.166;18.908;2023-06-26T18:42:24;63.62;52.11;85.14;;
68599;Laerm;18038;50.166;18.908;2023-06-26T18:45:35;60.00;51.32;71.94;;
68599;Laerm;18038;50.166;18.908;2023-06-26T18:48:48;59.36;50.86;67.67;;
68599;Laerm;18038;50.166;18.908;2023-06-26T18:51:56;59.43;51.06;70.54;;
68599;Laerm;18038;50.166;18.908;2023-06-26T18:55:05;59.62;50.98;74.65;;
68599;Laerm;18038;50.166;18.908;2023-06-26T18:58:14;59.51;52.06;75.47;;
68599;Laerm;18038;50.166;18.908;2023-06-26T19:01:26;58.67;51.94;68.15;;
68599;Laerm;18038;50.166;18.908;2023-06-26T19:04:33;58.21;51.27;69.17;;
68599;Laerm;18038;50.166;18.908;2023-06-26T19:07:40;59.35;51.38;73.93;;
68599;Laerm;18038;50.166;18.908;2023-06-26T19:10:47;59.63;51.31;69.78;;
68599;Laerm;18038;50.166;18.908;2023-06-26T19:13:57;59.98;51.38;74.94;;
68599;Laerm;18038;50.166;18.908;2023-06-26T19:17:04;62.42;51.86;76.68;;
68599;Laerm;18038;50.166;18.908;2023-06-26T19:20:12;61.24;51.31;82.46;;
68599;Laerm;18038;50.166;18.908;2023-06-26T19:23:19;61.03;51.77;76.37;;
68599;Laerm;18038;50.166;18.908;2023-06-26T19:26:26;59.99;51.40;72.10;;
68599;Laerm;18038;50.166;18.908;2023-06-26T19:29:35;57.35;50.69;67.22;;
68599;Laerm;18038;50.166;18.908;2023-06-26T19:32:42;57.78;50.22;67.08;;
68599;Laerm;18038;50.166;18.908;2023-06-26T19:35:49;58.32;51.02;67.41;;
68599;Laerm;18038;50.166;18.908;2023-06-26T19:38:56;60.61;50.53;82.86;;
68599;Laerm;18038;50.166;18.908;2023-06-26T19:42:07;59.46;50.42;75.09;;
68599;Laerm;18038;50.166;18.908;2023-06-26T19:45:18;58.81;51.82;73.96;;
68599;Laerm;18038;50.166;18.908;2023-06-26T19:48:24;60.02;51.69;68.94;;
68599;Laerm;18038;50.166;18.908;2023-06-26T19:51:31;60.33;50.54;76.35;;
68599;Laerm;18038;50.166;18.908;2023-06-26T19:54:38;57.37;51.27;68.42;;
68599;Laerm;18038;50.166;18.908;2023-06-26T19:57:46;57.56;50.39;70.46;;
68599;Laerm;18038;50.166;18.908;2023-06-26T20:00:56;58.12;49.78;70.41;;
68599;Laerm;18038;50.166;18.908;2023-06-26T20:04:04;58.94;50.33;71.85;;
68599;Laerm;18038;50.166;18.908;2023-06-26T20:07:11;59.69;50.28;77.17;;
68599;Laerm;18038;50.166;18.908;2023-06-26T20:10:18;59.69;50.17;70.36;;
68599;Laerm;18038;50.166;18.908;2023-06-26T20:13:24;59.45;49.68;71.51;;
68599;Laerm;18038;50.166;18.908;2023-06-26T20:16:39;58.61;49.94;69.12;;
68599;Laerm;18038;50.166;18.908;2023-06-26T20:19:46;57.81;49.36;68.29;;
68599;Laerm;18038;50.166;18.908;2023-06-26T20:23:03;58.24;50.33;70.89;;
68599;Laerm;18038;50.166;18.908;2023-06-26T20:26:25;58.93;49.13;75.39;;
68599;Laerm;18038;50.166;18.908;2023-06-26T20:29:32;57.18;49.23;67.66;;
68599;Laerm;18038;50.166;18.908;2023-06-26T20:32:42;57.03;50.19;66.53;;
68599;Laerm;18038;50.166;18.908;2023-06-26T20:35:49;58.05;48.82;69.30;;
68599;Laerm;18038;50.166;18.908;2023-06-26T20:38:56;59.62;50.40;68.17;;
68599;Laerm;18038;50.166;18.908;2023-06-26T20:42:07;58.65;48.25;68.56;;
68599;Laerm;18038;50.166;18.908;2023-06-26T20:45:15;55.49;48.43;67.54;;
68599;Laerm;18038;50.166;18.908;2023-06-26T20:48:26;58.19;48.69;72.09;;
68599;Laerm;18038;50.166;18.908;2023-06-26T20:51:33;58.78;48.71;72.19;;
68599;Laerm;18038;50.166;18.908;2023-06-26T20:54:42;57.30;49.28;67.65;;
68599;Laerm;18038;50.166;18.908;2023-06-26T20:57:48;53.54;48.10;64.62;;
68599;Laerm;18038;50.166;18.908;2023-06-26T21:00:55;57.58;48.87;68.12;;
68599;Laerm;18038;50.166;18.908;2023-06-26T21:04:04;56.63;47.80;76.21;;
68599;Laerm;18038;50.166;18.908;2023-06-26T21:07:11;56.53;47.71;73.04;;
68599;Laerm;18038;50.166;18.908;2023-06-26T21:10:18;55.48;47.80;68.83;;
68599;Laerm;18038;50.166;18.908;2023-06-26T21:13:25;54.78;47.76;68.78;;
68599;Laerm;18038;50.166;18.908;2023-06-26T21:16:31;56.71;47.68;73.04;;
68599;Laerm;18038;50.166;18.908;2023-06-26T21:19:43;50.40;47.71;62.95;;
68599;Laerm;18038;50.166;18.908;2023-06-26T21:22:49;55.66;48.15;69.13;;
68599;Laerm;18038;50.166;18.908;2023-06-26T21:25:59;54.21;47.80;70.10;;
68599;Laerm;18038;50.166;18.908;2023-06-26T21:29:05;52.40;47.73;65.92;;
68599;Laerm;18038;50.166;18.908;2023-06-26T21:32:13;54.15;47.66;66.55;;
68599;Laerm;18038;50.166;18.908;2023-06-26T21:35:22;53.72;47.86;64.59;;
68599;Laerm;18038;50.166;18.908;2023-06-26T21:38:45;59.33;47.69;77.02;;
68599;Laerm;18038;50.166;18.908;2023-06-26T21:41:52;58.49;47.93;72.77;;
68599;Laerm;18038;50.166;18.908;2023-06-26T21:44:59;56.72;47.37;68.92;;
68599;Laerm;18038;50.166;18.908;2023-06-26T21:48:06;53.84;47.32;69.83;;
68599;Laerm;18038;50.166;18.908;2023-06-26T21:51:16;56.03;47.73;69.48;;
68599;Laerm;18038;50.166;18.908;2023-06-26T21:54:24;59.25;48.37;71.57;;
68599;Laerm;18038;50.166;18.908;2023-06-26T21:57:31;51.19;47.60;63.97;;
68599;Laerm;18038;50.166;18.908;2023-06-26T22:00:37;55.16;47.88;68.93;;
68599;Laerm;18038;50.166;18.908;2023-06-26T22:03:44;58.10;47.77;76.06;;
68599;Laerm;18038;50.166;18.908;2023-06-26T22:06:53;52.67;47.59;66.55;;
68599;Laerm;18038;50.166;18.908;2023-06-26T22:10:00;53.33;47.68;65.77;;
68599;Laerm;18038;50.166;18.908;2023-06-26T22:13:08;51.36;47.38;62.32;;
68599;Laerm;18038;50.166;18.908;2023-06-26T22:16:15;54.67;47.80;68.54;;
68599;Laerm;18038;50.166;18.908;2023-06-26T22:19:21;52.67;47.64;66.39;;
68599;Laerm;18038;50.166;18.908;2023-06-26T22:22:30;52.29;47.61;66.26;;
68599;Laerm;18038;50.166;18.908;2023-06-26T22:25:39;53.52;47.19;68.35;;
68599;Laerm;18038;50.166;18.908;2023-06-26T22:28:46;50.63;47.17;62.33;;
68599;Laerm;18038;50.166;18.908;2023-06-26T22:31:52;50.17;47.32;60.96;;
68599;Laerm;18038;50.166;18.908;2023-06-26T22:35:00;53.08;47.20;61.88;;
68599;Laerm;18038;50.166;18.908;2023-06-26T22:38:09;51.48;47.25;67.51;;
68599;Laerm;18038;50.166;18.908;2023-06-26T22:41:19;52.80;47.61;67.88;;
68599;Laerm;18038;50.166;18.908;2023-06-26T22:44:25;49.16;47.10;58.57;;
68599;Laerm;18038;50.166;18.908;2023-06-26T22:47:35;49.15;46.94;62.97;;
68599;Laerm;18038;50.166;18.908;2023-06-26T22:50:41;52.62;50.19;68.56;;
68599;Laerm;18038;50.166;18.908;2023-06-26T22:53:53;52.11;49.13;61.85;;
68599;Laerm;18038;50.166;18.908;2023-06-26T22:56:59;52.49;49.07;64.49;;
68599;Laerm;18038;50.166;18.908;2023-06-26T23:00:08;60.76;50.49;75.65;;
68599;Laerm;18038;50.166;18.908;2023-06-26T23:03:16;56.93;50.83;71.06;;
68599;Laerm;18038;50.166;18.908;2023-06-26T23:06:23;53.39;50.27;61.57;;
68599;Laerm;18038;50.166;18.908;2023-06-26T23:09:31;52.09;49.11;62.13;;
68599;Laerm;18038;50.166;18.908;2023-06-26T23:12:38;50.32;48.63;56.99;;
68599;Laerm;18038;50.166;18.908;2023-06-26T23:15:45;51.79;48.88;63.41;;
68599;Laerm;18038;50.166;18.908;2023-06-26T23:18:52;51.53;48.72;62.63;;
68599;Laerm;18038;50.166;18.908;2023-06-26T23:21:58;50.47;48.85;58.08;;
68599;Laerm;18038;50.166;18.908;2023-06-26T23:25:11;52.50;47.78;69.48;;
68599;Laerm;18038;50.166;18.908;2023-06-26T23:28:17;55.60;47.91;69.10;;
68599;Laerm;18038;50.166;18.908;2023-06-26T23:31:24;57.73;50.69;66.63;;
68599;Laerm;18038;50.166;18.908;2023-06-26T23:34:31;55.12;49.76;66.38;;
68599;Laerm;18038;50.166;18.908;2023-06-26T23:37:38;60.25;56.20;65.17;;
68599;Laerm;18038;50.166;18.908;2023-06-26T23:40:48;65.69;58.18;75.74;;
68599;Laerm;18038;50.166;18.908;2023-06-26T23:43:55;67.49;61.81;74.03;;
68599;Laerm;18038;50.166;18.908;2023-06-26T23:47:08;63.02;54.09;74.69;;
68599;Laerm;18038;50.166;18.908;2023-06-26T23:50:17;55.99;51.91;68.36;;
68599;Laerm;18038;50.166;18.908;2023-06-26T23:53:23;54.75;52.05;63.75;;
68599;Laerm;18038;50.166;18.908;2023-06-26T23:56:33;56.91;50.17;71.94;;
68599;Laerm;18038;50.166;18.908;2023-06-26T23:59:40;52.74;49.84;65.09;;
